PST weather

Preston Airport
Preston, HolguĂ­n, Cuba

Public forecast

Using degrees Celsius for public forecast. Weather courtesy of forecast.io.

METAR (pilot weather report)

Closest report is Frank Pais International Airport, 37.0 nm (68.5 km) W. Retrieved 2019/05/19 12:50 UTC (1 hour ago):

MUHG 191250Z VRB02KT 7000 MIFG FEW020 BKN070 26/23 Q1015

TAF (pilot weather forecast)

Closest forecast is Frank Pais International Airport, 37.0 nm (68.5 km) W. Retrieved 2019/05/19 12:03 UTC (2 hours ago):

TAF MUHG 191100Z 1912/2012 VRB03KT 9000 SCT020 BKN090 TEMPO 1912/1914 0500 FG BECMG 1915/1917 05010KT TEMPO 1918/1924 VRB10KT 3000 TSRA SCT018CB BKN020 BECMG 2001/2003 VRB03KT